CYYT

St. John's International Airport

ICAO Code CYYT
IATA Code YYT
Name St. John's International Airport
Location St. John's, Newfoundland-and-Labrador, CA
Elevation 461 Feet / 140.5 Meters
Latitude 47.61859894
Longitude -52.75189972
METAR CYYT 210919Z 29019G25KT 3/4SM R29/6000FT/D R16/4500VP6000FT/D BR VV003 13/13 A2966 RMK FG8 SLP048 DENSITY ALT 700FT
Extra information Display Charts and CFS
Display NOTAMS
Runway Length Width Surface Elevation
02 5028 ft 100 ft ASP 445 ft
11 8502 ft 200 ft ASP 458 ft
16 7005 ft 200 ft ASP 444 ft
20 5028 ft 100 ft ASP 440 ft
29 8502 ft 200 ft ASP 437 ft
34 7005 ft 200 ft ASP 431 ft